sensor_id;sensor_type;location;lat;lon;timestamp;P1;durP1;ratioP1;P2;durP2;ratioP2
70953;SDS011;58618;47.490;8.736;2024-03-23T00:54:48;4.95;;;2.70;;
70953;SDS011;58618;47.490;8.736;2024-03-23T00:57:34;4.10;;;2.50;;
70953;SDS011;58618;47.490;8.736;2024-03-23T01:00:22;4.60;;;2.53;;
70953;SDS011;58618;47.490;8.736;2024-03-23T01:03:08;3.53;;;2.22;;
70953;SDS011;58618;47.490;8.736;2024-03-23T01:05:58;6.93;;;2.60;;
70953;SDS011;58618;47.490;8.736;2024-03-23T01:08:45;5.28;;;2.60;;
70953;SDS011;58618;47.490;8.736;2024-03-23T01:11:33;3.78;;;2.10;;
70953;SDS011;58618;47.490;8.736;2024-03-23T01:14:20;3.35;;;2.40;;
70953;SDS011;58618;47.490;8.736;2024-03-23T01:17:08;3.85;;;2.33;;
70953;SDS011;58618;47.490;8.736;2024-03-23T01:19:54;4.97;;;2.47;;
70953;SDS011;58618;47.490;8.736;2024-03-23T01:22:42;4.22;;;2.35;;
70953;SDS011;58618;47.490;8.736;2024-03-23T01:25:28;3.78;;;2.38;;
70953;SDS011;58618;47.490;8.736;2024-03-23T01:28:17;3.80;;;2.10;;
70953;SDS011;58618;47.490;8.736;2024-03-23T01:31:03;4.50;;;2.40;;
70953;SDS011;58618;47.490;8.736;2024-03-23T01:33:51;3.07;;;2.27;;
70953;SDS011;58618;47.490;8.736;2024-03-23T01:36:37;3.53;;;2.22;;
70953;SDS011;58618;47.490;8.736;2024-03-23T01:39:24;4.38;;;2.47;;
70953;SDS011;58618;47.490;8.736;2024-03-23T01:42:11;4.43;;;2.20;;
70953;SDS011;58618;47.490;8.736;2024-03-23T01:45:00;4.13;;;2.03;;
70953;SDS011;58618;47.490;8.736;2024-03-23T01:47:46;2.90;;;2.20;;
70953;SDS011;58618;47.490;8.736;2024-03-23T01:50:34;3.42;;;2.35;;
70953;SDS011;58618;47.490;8.736;2024-03-23T01:53:21;3.90;;;2.50;;
70953;SDS011;58618;47.490;8.736;2024-03-23T01:56:09;3.47;;;2.47;;
70953;SDS011;58618;47.490;8.736;2024-03-23T01:58:55;4.00;;;2.47;;
70953;SDS011;58618;47.490;8.736;2024-03-23T02:01:44;2.60;;;2.20;;
70953;SDS011;58618;47.490;8.736;2024-03-23T02:04:31;3.50;;;2.30;;
70953;SDS011;58618;47.490;8.736;2024-03-23T02:07:18;4.47;;;2.30;;
70953;SDS011;58618;47.490;8.736;2024-03-23T02:10:05;3.13;;;2.10;;
70953;SDS011;58618;47.490;8.736;2024-03-23T02:12:53;3.90;;;2.22;;
70953;SDS011;58618;47.490;8.736;2024-03-23T02:15:39;2.50;;;2.00;;
70953;SDS011;58618;47.490;8.736;2024-03-23T02:18:28;3.38;;;2.25;;
70953;SDS011;58618;47.490;8.736;2024-03-23T02:21:15;4.10;;;2.25;;
70953;SDS011;58618;47.490;8.736;2024-03-23T02:24:03;4.38;;;2.22;;
70953;SDS011;58618;47.490;8.736;2024-03-23T02:26:51;3.35;;;2.35;;
70953;SDS011;58618;47.490;8.736;2024-03-23T02:29:37;4.33;;;2.30;;
70953;SDS011;58618;47.490;8.736;2024-03-23T02:32:24;4.13;;;1.98;;
70953;SDS011;58618;47.490;8.736;2024-03-23T02:35:11;4.35;;;2.50;;
70953;SDS011;58618;47.490;8.736;2024-03-23T02:37:58;4.78;;;2.50;;
70953;SDS011;58618;47.490;8.736;2024-03-23T02:40:46;4.25;;;2.00;;
70953;SDS011;58618;47.490;8.736;2024-03-23T02:43:33;6.00;;;2.00;;
70953;SDS011;58618;47.490;8.736;2024-03-23T02:46:20;3.67;;;1.92;;
70953;SDS011;58618;47.490;8.736;2024-03-23T02:49:07;3.40;;;2.00;;
70953;SDS011;58618;47.490;8.736;2024-03-23T02:51:54;5.57;;;1.80;;
70953;SDS011;58618;47.490;8.736;2024-03-23T02:54:41;2.92;;;2.10;;
70953;SDS011;58618;47.490;8.736;2024-03-23T02:57:32;4.20;;;2.00;;
70953;SDS011;58618;47.490;8.736;2024-03-23T03:00:19;2.95;;;2.10;;
70953;SDS011;58618;47.490;8.736;2024-03-23T03:03:06;2.35;;;1.83;;
70953;SDS011;58618;47.490;8.736;2024-03-23T03:05:55;2.38;;;2.00;;
70953;SDS011;58618;47.490;8.736;2024-03-23T03:08:41;3.65;;;2.15;;
70953;SDS011;58618;47.490;8.736;2024-03-23T03:11:29;4.40;;;2.20;;
70953;SDS011;58618;47.490;8.736;2024-03-23T03:14:17;5.03;;;1.80;;
70953;SDS011;58618;47.490;8.736;2024-03-23T03:17:04;4.20;;;2.00;;
70953;SDS011;58618;47.490;8.736;2024-03-23T03:19:51;2.75;;;1.90;;
70953;SDS011;58618;47.490;8.736;2024-03-23T03:22:41;3.67;;;2.20;;
70953;SDS011;58618;47.490;8.736;2024-03-23T03:25:28;3.63;;;2.10;;
70953;SDS011;58618;47.490;8.736;2024-03-23T03:28:15;3.10;;;2.35;;
70953;SDS011;58618;47.490;8.736;2024-03-23T03:31:04;3.05;;;1.90;;
70953;SDS011;58618;47.490;8.736;2024-03-23T03:33:50;4.90;;;1.92;;
70953;SDS011;58618;47.490;8.736;2024-03-23T03:36:37;2.95;;;1.90;;
70953;SDS011;58618;47.490;8.736;2024-03-23T03:39:24;2.90;;;2.00;;
70953;SDS011;58618;47.490;8.736;2024-03-23T03:42:11;4.35;;;2.20;;
70953;SDS011;58618;47.490;8.736;2024-03-23T03:44:58;2.58;;;1.80;;
70953;SDS011;58618;47.490;8.736;2024-03-23T03:47:46;3.13;;;1.92;;
70953;SDS011;58618;47.490;8.736;2024-03-23T03:50:33;2.95;;;2.22;;
70953;SDS011;58618;47.490;8.736;2024-03-23T03:53:20;5.43;;;2.00;;
70953;SDS011;58618;47.490;8.736;2024-03-23T03:56:07;2.97;;;2.00;;
70953;SDS011;58618;47.490;8.736;2024-03-23T03:58:54;3.20;;;1.90;;
70953;SDS011;58618;47.490;8.736;2024-03-23T04:01:41;2.47;;;1.85;;
70953;SDS011;58618;47.490;8.736;2024-03-23T04:04:29;4.28;;;1.75;;
70953;SDS011;58618;47.490;8.736;2024-03-23T04:07:16;2.97;;;1.70;;
70953;SDS011;58618;47.490;8.736;2024-03-23T04:10:04;3.17;;;1.88;;
70953;SDS011;58618;47.490;8.736;2024-03-23T04:12:53;2.33;;;1.95;;
70953;SDS011;58618;47.490;8.736;2024-03-23T04:15:40;4.25;;;2.10;;
70953;SDS011;58618;47.490;8.736;2024-03-23T04:18:27;2.25;;;1.80;;
70953;SDS011;58618;47.490;8.736;2024-03-23T04:21:15;3.30;;;2.37;;
70953;SDS011;58618;47.490;8.736;2024-03-23T04:24:02;4.95;;;2.10;;
70953;SDS011;58618;47.490;8.736;2024-03-23T04:26:49;3.30;;;2.45;;
70953;SDS011;58618;47.490;8.736;2024-03-23T04:29:37;4.28;;;2.45;;
70953;SDS011;58618;47.490;8.736;2024-03-23T04:32:23;3.55;;;2.10;;
70953;SDS011;58618;47.490;8.736;2024-03-23T04:35:10;2.73;;;2.20;;
70953;SDS011;58618;47.490;8.736;2024-03-23T04:37:58;2.63;;;1.80;;
70953;SDS011;58618;47.490;8.736;2024-03-23T04:40:53;5.22;;;2.30;;
70953;SDS011;58618;47.490;8.736;2024-03-23T04:43:41;4.15;;;1.98;;
70953;SDS011;58618;47.490;8.736;2024-03-23T04:46:28;3.95;;;1.90;;
70953;SDS011;58618;47.490;8.736;2024-03-23T04:49:15;2.50;;;1.87;;
70953;SDS011;58618;47.490;8.736;2024-03-23T04:52:03;5.43;;;2.00;;
70953;SDS011;58618;47.490;8.736;2024-03-23T04:54:52;2.38;;;1.80;;
70953;SDS011;58618;47.490;8.736;2024-03-23T04:57:40;4.40;;;1.90;;
70953;SDS011;58618;47.490;8.736;2024-03-23T05:00:27;3.38;;;2.08;;
70953;SDS011;58618;47.490;8.736;2024-03-23T05:03:14;3.60;;;2.13;;
70953;SDS011;58618;47.490;8.736;2024-03-23T05:06:01;3.72;;;2.20;;
70953;SDS011;58618;47.490;8.736;2024-03-23T05:08:48;4.15;;;2.10;;
70953;SDS011;58618;47.490;8.736;2024-03-23T05:11:36;10.27;;;3.03;;
70953;SDS011;58618;47.490;8.736;2024-03-23T05:14:23;3.83;;;2.00;;
70953;SDS011;58618;47.490;8.736;2024-03-23T05:17:11;4.90;;;2.20;;
70953;SDS011;58618;47.490;8.736;2024-03-23T05:19:57;5.32;;;2.20;;
70953;SDS011;58618;47.490;8.736;2024-03-23T05:22:45;3.95;;;2.10;;
70953;SDS011;58618;47.490;8.736;2024-03-23T05:25:32;4.38;;;2.20;;
70953;SDS011;58618;47.490;8.736;2024-03-23T05:28:21;3.30;;;2.25;;
70953;SDS011;58618;47.490;8.736;2024-03-23T05:31:07;3.97;;;2.30;;
70953;SDS011;58618;47.490;8.736;2024-03-23T05:33:55;4.95;;;2.70;;
70953;SDS011;58618;47.490;8.736;2024-03-23T05:36:42;6.78;;;3.08;;
70953;SDS011;58618;47.490;8.736;2024-03-23T05:39:29;9.27;;;3.13;;
70953;SDS011;58618;47.490;8.736;2024-03-23T05:42:16;6.25;;;3.35;;
70953;SDS011;58618;47.490;8.736;2024-03-23T05:45:05;5.80;;;3.17;;
70953;SDS011;58618;47.490;8.736;2024-03-23T05:47:52;6.35;;;3.65;;
70953;SDS011;58618;47.490;8.736;2024-03-23T05:50:39;7.18;;;3.67;;
70953;SDS011;58618;47.490;8.736;2024-03-23T05:53:26;4.70;;;3.47;;
70953;SDS011;58618;47.490;8.736;2024-03-23T05:56:14;7.55;;;3.67;;
70953;SDS011;58618;47.490;8.736;2024-03-23T05:59:00;6.47;;;3.80;;
70953;SDS011;58618;47.490;8.736;2024-03-23T06:01:50;7.55;;;3.47;;
70953;SDS011;58618;47.490;8.736;2024-03-23T06:04:38;4.78;;;3.45;;
70953;SDS011;58618;47.490;8.736;2024-03-23T06:07:25;6.45;;;3.67;;
70953;SDS011;58618;47.490;8.736;2024-03-23T06:10:11;7.15;;;3.60;;
70953;SDS011;58618;47.490;8.736;2024-03-23T06:12:58;6.53;;;4.43;;
70953;SDS011;58618;47.490;8.736;2024-03-23T06:15:46;8.23;;;4.20;;
70953;SDS011;58618;47.490;8.736;2024-03-23T06:18:33;7.53;;;4.50;;
70953;SDS011;58618;47.490;8.736;2024-03-23T06:21:21;6.85;;;4.35;;
70953;SDS011;58618;47.490;8.736;2024-03-23T06:24:10;6.07;;;4.47;;
70953;SDS011;58618;47.490;8.736;2024-03-23T06:26:56;7.17;;;4.43;;
70953;SDS011;58618;47.490;8.736;2024-03-23T06:29:44;7.50;;;5.25;;
70953;SDS011;58618;47.490;8.736;2024-03-23T06:32:30;6.45;;;4.78;;
70953;SDS011;58618;47.490;8.736;2024-03-23T06:35:21;8.05;;;4.88;;
70953;SDS011;58618;47.490;8.736;2024-03-23T06:38:07;5.90;;;4.30;;
70953;SDS011;58618;47.490;8.736;2024-03-23T06:40:55;8.03;;;4.43;;
70953;SDS011;58618;47.490;8.736;2024-03-23T06:43:41;6.47;;;4.75;;
70953;SDS011;58618;47.490;8.736;2024-03-23T06:46:28;6.75;;;4.90;;
70953;SDS011;58618;47.490;8.736;2024-03-23T06:49:15;6.75;;;4.53;;
70953;SDS011;58618;47.490;8.736;2024-03-23T06:52:04;6.30;;;4.45;;
70953;SDS011;58618;47.490;8.736;2024-03-23T06:54:50;7.43;;;4.13;;
70953;SDS011;58618;47.490;8.736;2024-03-23T06:57:37;6.43;;;4.10;;
70953;SDS011;58618;47.490;8.736;2024-03-23T07:00:24;7.25;;;4.90;;
70953;SDS011;58618;47.490;8.736;2024-03-23T07:03:11;6.53;;;4.57;;
70953;SDS011;58618;47.490;8.736;2024-03-23T07:05:58;6.38;;;4.43;;
70953;SDS011;58618;47.490;8.736;2024-03-23T07:08:47;7.37;;;4.57;;
70953;SDS011;58618;47.490;8.736;2024-03-23T07:11:33;6.78;;;4.35;;
70953;SDS011;58618;47.490;8.736;2024-03-23T07:14:21;5.32;;;4.15;;
70953;SDS011;58618;47.490;8.736;2024-03-23T07:17:07;6.35;;;3.67;;
70953;SDS011;58618;47.490;8.736;2024-03-23T07:19:54;7.30;;;3.97;;
70953;SDS011;58618;47.490;8.736;2024-03-23T07:22:41;4.93;;;3.30;;
70953;SDS011;58618;47.490;8.736;2024-03-23T07:25:29;5.50;;;3.60;;
70953;SDS011;58618;47.490;8.736;2024-03-23T07:28:17;5.07;;;3.65;;
70953;SDS011;58618;47.490;8.736;2024-03-23T07:31:04;5.82;;;3.80;;
70953;SDS011;58618;47.490;8.736;2024-03-23T07:33:52;6.35;;;3.90;;
70953;SDS011;58618;47.490;8.736;2024-03-23T07:36:38;6.20;;;3.60;;
70953;SDS011;58618;47.490;8.736;2024-03-23T07:39:26;6.00;;;3.97;;
70953;SDS011;58618;47.490;8.736;2024-03-23T07:42:15;5.32;;;3.47;;
70953;SDS011;58618;47.490;8.736;2024-03-23T07:45:02;7.15;;;4.00;;
70953;SDS011;58618;47.490;8.736;2024-03-23T07:47:49;6.78;;;4.38;;
70953;SDS011;58618;47.490;8.736;2024-03-23T07:50:37;7.57;;;3.90;;
70953;SDS011;58618;47.490;8.736;2024-03-23T07:53:23;6.80;;;4.10;;
70953;SDS011;58618;47.490;8.736;2024-03-23T07:56:10;6.07;;;4.15;;
70953;SDS011;58618;47.490;8.736;2024-03-23T07:58:58;7.25;;;3.83;;
70953;SDS011;58618;47.490;8.736;2024-03-23T08:01:46;7.95;;;3.78;;
70953;SDS011;58618;47.490;8.736;2024-03-23T08:04:32;4.97;;;3.03;;
70953;SDS011;58618;47.490;8.736;2024-03-23T08:07:20;4.35;;;2.92;;
70953;SDS011;58618;47.490;8.736;2024-03-23T08:10:06;4.82;;;3.25;;
70953;SDS011;58618;47.490;8.736;2024-03-23T08:12:53;5.50;;;2.47;;
70953;SDS011;58618;47.490;8.736;2024-03-23T08:15:41;3.30;;;1.95;;
70953;SDS011;58618;47.490;8.736;2024-03-23T08:18:29;2.97;;;1.80;;
70953;SDS011;58618;47.490;8.736;2024-03-23T08:21:15;2.55;;;1.90;;
70953;SDS011;58618;47.490;8.736;2024-03-23T08:24:03;1.80;;;1.40;;
70953;SDS011;58618;47.490;8.736;2024-03-23T08:26:51;1.67;;;1.30;;
70953;SDS011;58618;47.490;8.736;2024-03-23T08:29:38;1.42;;;0.93;;
70953;SDS011;58618;47.490;8.736;2024-03-23T08:32:26;2.40;;;1.03;;
70953;SDS011;58618;47.490;8.736;2024-03-23T08:35:13;1.67;;;1.30;;
70953;SDS011;58618;47.490;8.736;2024-03-23T08:38:00;1.05;;;0.80;;
70953;SDS011;58618;47.490;8.736;2024-03-23T08:40:48;0.98;;;0.80;;
70953;SDS011;58618;47.490;8.736;2024-03-23T08:43:35;1.52;;;0.90;;
70953;SDS011;58618;47.490;8.736;2024-03-23T08:46:23;0.90;;;0.80;;
70953;SDS011;58618;47.490;8.736;2024-03-23T08:49:12;1.10;;;0.70;;
70953;SDS011;58618;47.490;8.736;2024-03-23T08:52:00;1.25;;;0.80;;
70953;SDS011;58618;47.490;8.736;2024-03-23T08:54:47;0.98;;;0.80;;
70953;SDS011;58618;47.490;8.736;2024-03-23T08:57:33;1.45;;;0.70;;
70953;SDS011;58618;47.490;8.736;2024-03-23T09:00:21;0.90;;;0.70;;
70953;SDS011;58618;47.490;8.736;2024-03-23T09:03:07;1.10;;;0.75;;
70953;SDS011;58618;47.490;8.736;2024-03-23T09:05:56;0.95;;;0.88;;
70953;SDS011;58618;47.490;8.736;2024-03-23T09:08:44;1.88;;;1.00;;
70953;SDS011;58618;47.490;8.736;2024-03-23T09:11:31;1.95;;;0.95;;
70953;SDS011;58618;47.490;8.736;2024-03-23T09:14:17;1.33;;;0.83;;
70953;SDS011;58618;47.490;8.736;2024-03-23T09:17:05;1.60;;;0.85;;
70953;SDS011;58618;47.490;8.736;2024-03-23T09:19:51;1.70;;;0.98;;
70953;SDS011;58618;47.490;8.736;2024-03-23T09:22:40;1.48;;;1.02;;
70953;SDS011;58618;47.490;8.736;2024-03-23T09:25:26;2.85;;;1.10;;
70953;SDS011;58618;47.490;8.736;2024-03-23T09:28:14;1.43;;;0.70;;
70953;SDS011;58618;47.490;8.736;2024-03-23T09:31:04;2.72;;;1.00;;
70953;SDS011;58618;47.490;8.736;2024-03-23T09:33:50;4.00;;;1.00;;
70953;SDS011;58618;47.490;8.736;2024-03-23T09:36:38;2.88;;;1.02;;
70953;SDS011;58618;47.490;8.736;2024-03-23T09:39:26;3.05;;;1.20;;
70953;SDS011;58618;47.490;8.736;2024-03-23T09:42:14;2.40;;;1.20;;
70953;SDS011;58618;47.490;8.736;2024-03-23T09:45:01;2.42;;;1.20;;
70953;SDS011;58618;47.490;8.736;2024-03-23T09:47:48;5.90;;;2.10;;
70953;SDS011;58618;47.490;8.736;2024-03-23T09:50:36;3.25;;;1.70;;
70953;SDS011;58618;47.490;8.736;2024-03-23T09:53:24;6.90;;;1.67;;
70953;SDS011;58618;47.490;8.736;2024-03-23T09:56:13;3.43;;;1.30;;
70953;SDS011;58618;47.490;8.736;2024-03-23T09:59:02;3.33;;;1.50;;
70953;SDS011;58618;47.490;8.736;2024-03-23T10:01:50;3.75;;;1.75;;
70953;SDS011;58618;47.490;8.736;2024-03-23T10:04:36;5.10;;;1.77;;
70953;SDS011;58618;47.490;8.736;2024-03-23T10:07:25;5.30;;;1.70;;
70953;SDS011;58618;47.490;8.736;2024-03-23T10:10:15;6.27;;;1.70;;
70953;SDS011;58618;47.490;8.736;2024-03-23T10:13:05;6.63;;;1.58;;
70953;SDS011;58618;47.490;8.736;2024-03-23T10:15:55;4.72;;;1.83;;
70953;SDS011;58618;47.490;8.736;2024-03-23T10:18:43;6.35;;;1.77;;
70953;SDS011;58618;47.490;8.736;2024-03-23T10:21:30;11.32;;;2.15;;
70953;SDS011;58618;47.490;8.736;2024-03-23T10:24:17;6.33;;;2.10;;
70953;SDS011;58618;47.490;8.736;2024-03-23T10:27:03;5.00;;;1.90;;
70953;SDS011;58618;47.490;8.736;2024-03-23T10:29:52;9.73;;;2.03;;
70953;SDS011;58618;47.490;8.736;2024-03-23T10:33:06;5.57;;;1.73;;
70953;SDS011;58618;47.490;8.736;2024-03-23T10:35:54;3.47;;;1.60;;
70953;SDS011;58618;47.490;8.736;2024-03-23T10:38:40;6.53;;;1.70;;
70953;SDS011;58618;47.490;8.736;2024-03-23T10:41:28;5.32;;;1.90;;
70953;SDS011;58618;47.490;8.736;2024-03-23T10:44:18;7.43;;;2.13;;
70953;SDS011;58618;47.490;8.736;2024-03-23T10:47:07;7.70;;;1.60;;
70953;SDS011;58618;47.490;8.736;2024-03-23T10:49:56;5.05;;;1.83;;
70953;SDS011;58618;47.490;8.736;2024-03-23T10:52:42;9.13;;;1.97;;
70953;SDS011;58618;47.490;8.736;2024-03-23T10:55:33;8.10;;;1.58;;
70953;SDS011;58618;47.490;8.736;2024-03-23T10:58:21;5.70;;;1.92;;
70953;SDS011;58618;47.490;8.736;2024-03-23T11:01:13;3.22;;;1.80;;
70953;SDS011;58618;47.490;8.736;2024-03-23T11:04:01;4.38;;;1.40;;
70953;SDS011;58618;47.490;8.736;2024-03-23T11:06:48;3.40;;;1.90;;
70953;SDS011;58618;47.490;8.736;2024-03-23T11:09:38;4.35;;;1.35;;
70953;SDS011;58618;47.490;8.736;2024-03-23T11:12:27;3.78;;;1.38;;
70953;SDS011;58618;47.490;8.736;2024-03-23T11:15:17;4.72;;;1.48;;
70953;SDS011;58618;47.490;8.736;2024-03-23T11:18:05;4.43;;;1.27;;
70953;SDS011;58618;47.490;8.736;2024-03-23T11:20:55;5.10;;;1.50;;
70953;SDS011;58618;47.490;8.736;2024-03-23T11:23:42;4.50;;;1.70;;
70953;SDS011;58618;47.490;8.736;2024-03-23T11:26:30;4.03;;;1.42;;
70953;SDS011;58618;47.490;8.736;2024-03-23T11:29:16;6.15;;;1.45;;
70953;SDS011;58618;47.490;8.736;2024-03-23T11:32:05;6.15;;;1.83;;
70953;SDS011;58618;47.490;8.736;2024-03-23T11:34:55;4.27;;;1.43;;
70953;SDS011;58618;47.490;8.736;2024-03-23T11:37:44;5.10;;;1.60;;
70953;SDS011;58618;47.490;8.736;2024-03-23T11:40:31;6.00;;;1.17;;
70953;SDS011;58618;47.490;8.736;2024-03-23T11:43:19;5.70;;;1.63;;
70953;SDS011;58618;47.490;8.736;2024-03-23T11:46:08;4.18;;;1.35;;
70953;SDS011;58618;47.490;8.736;2024-03-23T11:48:54;3.43;;;1.27;;
70953;SDS011;58618;47.490;8.736;2024-03-23T11:51:41;4.20;;;1.50;;
70953;SDS011;58618;47.490;8.736;2024-03-23T11:54:30;5.55;;;1.48;;
70953;SDS011;58618;47.490;8.736;2024-03-23T11:57:17;4.65;;;1.30;;
70953;SDS011;58618;47.490;8.736;2024-03-23T12:00:19;4.07;;;1.80;;
70953;SDS011;58618;47.490;8.736;2024-03-23T12:03:07;3.93;;;1.33;;
70953;SDS011;58618;47.490;8.736;2024-03-23T12:05:56;3.50;;;1.25;;
70953;SDS011;58618;47.490;8.736;2024-03-23T12:08:45;4.22;;;1.67;;
70953;SDS011;58618;47.490;8.736;2024-03-23T12:11:35;2.47;;;1.10;;
70953;SDS011;58618;47.490;8.736;2024-03-23T12:14:21;5.38;;;1.30;;
70953;SDS011;58618;47.490;8.736;2024-03-23T12:17:09;6.03;;;1.27;;
70953;SDS011;58618;47.490;8.736;2024-03-23T12:19:57;6.57;;;1.40;;
70953;SDS011;58618;47.490;8.736;2024-03-23T12:22:45;4.40;;;1.45;;
70953;SDS011;58618;47.490;8.736;2024-03-23T12:25:32;3.55;;;1.50;;
70953;SDS011;58618;47.490;8.736;2024-03-23T12:28:21;2.90;;;1.30;;
70953;SDS011;58618;47.490;8.736;2024-03-23T12:31:08;5.10;;;1.10;;
70953;SDS011;58618;47.490;8.736;2024-03-23T12:33:56;4.18;;;1.30;;
70953;SDS011;58618;47.490;8.736;2024-03-23T12:36:43;4.55;;;1.10;;
70953;SDS011;58618;47.490;8.736;2024-03-23T12:39:29;3.50;;;1.20;;
70953;SDS011;58618;47.490;8.736;2024-03-23T12:42:17;5.20;;;1.40;;
70953;SDS011;58618;47.490;8.736;2024-03-23T12:45:05;9.73;;;1.20;;
70953;SDS011;58618;47.490;8.736;2024-03-23T12:47:53;4.53;;;1.27;;
70953;SDS011;58618;47.490;8.736;2024-03-23T12:50:40;5.55;;;1.60;;
70953;SDS011;58618;47.490;8.736;2024-03-23T12:53:27;3.03;;;1.20;;
70953;SDS011;58618;47.490;8.736;2024-03-23T12:56:14;4.28;;;1.40;;
70953;SDS011;58618;47.490;8.736;2024-03-23T12:59:00;2.60;;;1.20;;
70953;SDS011;58618;47.490;8.736;2024-03-23T13:01:51;3.65;;;1.30;;
70953;SDS011;58618;47.490;8.736;2024-03-23T13:04:38;6.72;;;1.30;;
70953;SDS011;58618;47.490;8.736;2024-03-23T13:07:25;9.13;;;1.80;;
70953;SDS011;58618;47.490;8.736;2024-03-23T13:10:12;4.72;;;1.25;;
70953;SDS011;58618;47.490;8.736;2024-03-23T13:13:00;3.10;;;1.40;;
70953;SDS011;58618;47.490;8.736;2024-03-23T13:15:49;4.80;;;1.35;;
70953;SDS011;58618;47.490;8.736;2024-03-23T13:18:38;3.33;;;1.40;;
70953;SDS011;58618;47.490;8.736;2024-03-23T13:21:25;2.92;;;1.30;;
70953;SDS011;58618;47.490;8.736;2024-03-23T13:24:12;5.40;;;1.30;;
70953;SDS011;58618;47.490;8.736;2024-03-23T13:26:58;3.53;;;1.60;;
70953;SDS011;58618;47.490;8.736;2024-03-23T13:29:46;4.25;;;1.30;;
70953;SDS011;58618;47.490;8.736;2024-03-23T13:32:32;5.60;;;2.00;;
70953;SDS011;58618;47.490;8.736;2024-03-23T13:35:22;5.60;;;1.17;;
70953;SDS011;58618;47.490;8.736;2024-03-23T13:38:08;3.78;;;1.60;;
70953;SDS011;58618;47.490;8.736;2024-03-23T13:40:56;4.83;;;1.30;;
70953;SDS011;58618;47.490;8.736;2024-03-23T13:43:44;5.82;;;1.73;;
70953;SDS011;58618;47.490;8.736;2024-03-23T13:46:31;3.35;;;1.10;;
70953;SDS011;58618;47.490;8.736;2024-03-23T13:49:24;6.95;;;1.30;;
70953;SDS011;58618;47.490;8.736;2024-03-23T13:52:14;4.82;;;1.65;;
70953;SDS011;58618;47.490;8.736;2024-03-23T13:55:00;4.93;;;1.80;;
70953;SDS011;58618;47.490;8.736;2024-03-23T13:57:47;4.03;;;1.58;;
70953;SDS011;58618;47.490;8.736;2024-03-23T14:00:34;5.53;;;1.30;;
70953;SDS011;58618;47.490;8.736;2024-03-23T14:03:22;6.25;;;1.48;;
70953;SDS011;58618;47.490;8.736;2024-03-23T14:06:08;3.05;;;1.20;;
70953;SDS011;58618;47.490;8.736;2024-03-23T14:08:57;3.60;;;1.20;;
70953;SDS011;58618;47.490;8.736;2024-03-23T14:11:43;2.83;;;1.08;;
70953;SDS011;58618;47.490;8.736;2024-03-23T14:14:31;3.70;;;1.20;;
70953;SDS011;58618;47.490;8.736;2024-03-23T14:17:17;3.58;;;1.40;;
70953;SDS011;58618;47.490;8.736;2024-03-23T14:20:05;1.70;;;1.00;;
70953;SDS011;58618;47.490;8.736;2024-03-23T14:22:55;4.73;;;1.20;;
70953;SDS011;58618;47.490;8.736;2024-03-23T14:25:44;3.25;;;1.00;;
70953;SDS011;58618;47.490;8.736;2024-03-23T14:28:31;6.57;;;1.52;;
70953;SDS011;58618;47.490;8.736;2024-03-23T14:31:18;4.55;;;1.30;;
70953;SDS011;58618;47.490;8.736;2024-03-23T14:34:05;3.50;;;1.10;;
70953;SDS011;58618;47.490;8.736;2024-03-23T14:36:52;2.83;;;1.10;;
70953;SDS011;58618;47.490;8.736;2024-03-23T14:39:38;6.97;;;1.80;;
70953;SDS011;58618;47.490;8.736;2024-03-23T14:42:28;6.40;;;1.42;;
70953;SDS011;58618;47.490;8.736;2024-03-23T14:45:16;3.28;;;1.23;;
70953;SDS011;58618;47.490;8.736;2024-03-23T14:48:03;3.50;;;1.40;;
70953;SDS011;58618;47.490;8.736;2024-03-23T14:50:55;2.53;;;1.30;;
70953;SDS011;58618;47.490;8.736;2024-03-23T14:53:45;4.47;;;1.42;;
70953;SDS011;58618;47.490;8.736;2024-03-23T14:56:31;6.88;;;1.52;;
70953;SDS011;58618;47.490;8.736;2024-03-23T14:59:22;5.90;;;1.08;;
70953;SDS011;58618;47.490;8.736;2024-03-23T15:02:09;6.60;;;1.40;;
70953;SDS011;58618;47.490;8.736;2024-03-23T15:04:58;7.03;;;1.63;;
70953;SDS011;58618;47.490;8.736;2024-03-23T15:07:45;5.70;;;1.23;;
70953;SDS011;58618;47.490;8.736;2024-03-23T15:10:32;5.53;;;1.42;;
70953;SDS011;58618;47.490;8.736;2024-03-23T15:13:19;3.08;;;1.17;;
70953;SDS011;58618;47.490;8.736;2024-03-23T15:16:10;3.17;;;1.10;;
70953;SDS011;58618;47.490;8.736;2024-03-23T15:18:57;4.10;;;1.00;;
70953;SDS011;58618;47.490;8.736;2024-03-23T15:21:44;3.63;;;0.98;;
70953;SDS011;58618;47.490;8.736;2024-03-23T15:24:31;2.67;;;1.08;;
70953;SDS011;58618;47.490;8.736;2024-03-23T15:27:20;3.75;;;1.20;;
70953;SDS011;58618;47.490;8.736;2024-03-23T15:30:06;4.40;;;1.10;;
70953;SDS011;58618;47.490;8.736;2024-03-23T15:32:56;3.90;;;1.20;;
70953;SDS011;58618;47.490;8.736;2024-03-23T15:35:43;3.85;;;1.20;;
70953;SDS011;58618;47.490;8.736;2024-03-23T15:38:31;2.72;;;0.98;;
70953;SDS011;58618;47.490;8.736;2024-03-23T15:41:17;4.07;;;1.30;;
70953;SDS011;58618;47.490;8.736;2024-03-23T15:44:05;2.53;;;1.00;;
70953;SDS011;58618;47.490;8.736;2024-03-23T15:46:52;5.20;;;1.27;;
70953;SDS011;58618;47.490;8.736;2024-03-23T15:49:40;5.60;;;0.98;;
70953;SDS011;58618;47.490;8.736;2024-03-23T15:52:28;3.65;;;0.90;;
70953;SDS011;58618;47.490;8.736;2024-03-23T15:55:15;3.20;;;1.20;;
70953;SDS011;58618;47.490;8.736;2024-03-23T15:58:02;4.05;;;1.02;;
70953;SDS011;58618;47.490;8.736;2024-03-23T16:00:54;3.87;;;1.50;;
70953;SDS011;58618;47.490;8.736;2024-03-23T16:03:40;6.28;;;1.10;;
70953;SDS011;58618;47.490;8.736;2024-03-23T16:06:29;4.28;;;1.00;;
70953;SDS011;58618;47.490;8.736;2024-03-23T16:09:15;2.15;;;1.10;;
70953;SDS011;58618;47.490;8.736;2024-03-23T16:12:04;3.28;;;1.35;;
70953;SDS011;58618;47.490;8.736;2024-03-23T16:14:51;3.43;;;1.10;;
70953;SDS011;58618;47.490;8.736;2024-03-23T16:17:40;3.78;;;1.20;;
70953;SDS011;58618;47.490;8.736;2024-03-23T16:20:27;2.85;;;1.00;;
70953;SDS011;58618;47.490;8.736;2024-03-23T16:23:15;3.83;;;1.05;;
70953;SDS011;58618;47.490;8.736;2024-03-23T16:26:03;3.42;;;1.10;;
70953;SDS011;58618;47.490;8.736;2024-03-23T16:28:49;3.03;;;0.80;;
70953;SDS011;58618;47.490;8.736;2024-03-23T16:31:37;3.58;;;1.23;;
70953;SDS011;58618;47.490;8.736;2024-03-23T16:34:23;4.18;;;1.02;;
70953;SDS011;58618;47.490;8.736;2024-03-23T16:37:10;2.25;;;1.00;;
70953;SDS011;58618;47.490;8.736;2024-03-23T16:39:58;4.18;;;1.00;;
70953;SDS011;58618;47.490;8.736;2024-03-23T16:42:45;1.63;;;0.90;;
70953;SDS011;58618;47.490;8.736;2024-03-23T16:45:32;5.20;;;1.10;;
70953;SDS011;58618;47.490;8.736;2024-03-23T16:48:19;4.35;;;1.40;;
70953;SDS011;58618;47.490;8.736;2024-03-23T16:51:06;4.40;;;1.33;;
70953;SDS011;58618;47.490;8.736;2024-03-23T16:53:54;5.85;;;1.80;;
70953;SDS011;58618;47.490;8.736;2024-03-23T16:56:43;4.50;;;2.17;;
70953;SDS011;58618;47.490;8.736;2024-03-23T16:59:31;4.80;;;1.38;;
70953;SDS011;58618;47.490;8.736;2024-03-23T17:02:17;3.38;;;1.40;;
70953;SDS011;58618;47.490;8.736;2024-03-23T17:05:06;4.22;;;1.48;;
70953;SDS011;58618;47.490;8.736;2024-03-23T17:07:52;6.50;;;1.40;;
70953;SDS011;58618;47.490;8.736;2024-03-23T17:10:42;6.90;;;1.37;;
70953;SDS011;58618;47.490;8.736;2024-03-23T17:13:29;4.25;;;1.60;;
70953;SDS011;58618;47.490;8.736;2024-03-23T17:16:17;5.20;;;1.38;;
70953;SDS011;58618;47.490;8.736;2024-03-23T17:19:04;5.53;;;1.50;;
70953;SDS011;58618;47.490;8.736;2024-03-23T17:21:51;2.78;;;1.17;;
70953;SDS011;58618;47.490;8.736;2024-03-23T17:24:38;5.07;;;1.73;;
70953;SDS011;58618;47.490;8.736;2024-03-23T17:27:25;3.83;;;1.50;;
70953;SDS011;58618;47.490;8.736;2024-03-23T17:30:13;6.25;;;1.30;;
70953;SDS011;58618;47.490;8.736;2024-03-23T17:33:02;2.58;;;1.85;;
70953;SDS011;58618;47.490;8.736;2024-03-23T17:35:49;5.45;;;1.27;;
70953;SDS011;58618;47.490;8.736;2024-03-23T17:38:36;2.87;;;1.47;;
70953;SDS011;58618;47.490;8.736;2024-03-23T17:41:23;3.95;;;1.42;;
70953;SDS011;58618;47.490;8.736;2024-03-23T17:44:11;3.88;;;1.10;;